Time;durP1;ratioP1;P1;durP2;ratioP2;P2;SDS_P1;SDS_P2;PMS_P1;PMS_P2;Temp;Humidity;BMP_temperature;BMP_pressure;BME280_temperature;BME280_humidity;BME280_pressure;Samples;Min_cycle;Max_cycle;Signal;HPM_P1;HPM_P2
2021/12/24 00:00:39;;;;;;;1.27;1.20;;;;;;;-13.89;79.79;98526.50;4915444;29;20480;-86
2021/12/24 00:03:07;;;;;;;1.50;1.40;;;;;;;-14.05;79.65;98519.75;4891183;29;20416;-86
2021/12/24 00:05:35;;;;;;;1.55;1.45;;;;;;;-14.08;80.25;98521.69;4916777;29;20056;-85
2021/12/24 00:08:02;;;;;;;1.50;1.40;;;;;;;-14.10;80.38;98532.19;4914498;29;20056;-86
2021/12/24 00:10:32;;;;;;;1.50;1.40;;;;;;;-14.05;80.61;98540.50;4897807;29;20052;-86
2021/12/24 00:13:04;;;;;;;1.45;1.35;;;;;;;-14.05;80.47;98532.72;4899926;29;20465;-85
2021/12/24 00:36:56;;;;;;;1.27;1.17;;;;;;;-13.87;80.08;98514.25;4914897;29;20052;-86
2021/12/24 00:39:23;;;;;;;1.20;1.20;;;;;;;-13.85;79.76;98504.59;4915192;29;20060;-86
2021/12/24 00:41:50;;;;;;;1.38;1.27;;;;;;;-13.85;79.85;98496.81;4912108;29;20060;-86
2021/12/24 00:44:17;;;;;;;1.05;1.05;;;;;;;-13.80;79.98;98505.97;4914261;29;20060;-84
2021/12/24 00:46:47;;;;;;;1.30;1.20;;;;;;;-13.79;79.77;98492.06;4915961;29;20055;-88
2021/12/24 00:49:14;;;;;;;1.48;1.38;;;;;;;-13.71;79.49;98491.53;4916544;29;20135;-85
2021/12/24 00:57:00;;;;;;;1.40;1.30;;;;;;;-13.63;79.03;98481.44;4885149;29;20127;-85
2021/12/24 00:59:29;;;;;;;1.20;1.10;;;;;;;-13.64;78.79;98463.41;4915288;29;20075;-84
2021/12/24 01:01:57;;;;;;;1.27;1.20;;;;;;;-13.67;79.03;98469.63;4914207;29;20059;-84
2021/12/24 01:04:25;;;;;;;1.45;1.35;;;;;;;-13.70;79.20;98482.78;4894365;29;20112;-85
2021/12/24 01:06:54;;;;;;;1.50;1.40;;;;;;;-13.79;79.29;98488.63;4916412;29;20115;-84
2021/12/24 01:09:21;;;;;;;1.38;1.27;;;;;;;-13.82;79.22;98466.31;4898886;29;20063;-85
2021/12/24 01:11:49;;;;;;;1.40;1.30;;;;;;;-13.90;79.38;98465.16;4886763;29;20117;-84
2021/12/24 01:14:16;;;;;;;1.50;1.40;;;;;;;-14.05;79.83;98464.44;4912291;29;20056;-85
2021/12/24 01:16:52;;;;;;;1.40;1.30;;;;;;;-14.08;80.24;98465.47;4912776;29;20420;-84
2021/12/24 01:19:23;;;;;;;1.38;1.27;;;;;;;-14.07;80.38;98463.72;4898243;29;20076;-85
2021/12/24 01:24:34;;;;;;;1.50;1.40;;;;;;;-14.15;80.47;98451.28;4898655;29;20476;-84
2021/12/24 01:27:21;;;;;;;1.25;1.20;;;;;;;-14.07;80.50;98459.38;4896223;29;20058;-84
2021/12/24 01:30:08;;;;;;;1.40;1.30;;;;;;;-14.15;80.23;98455.59;4896057;29;20559;-84
2021/12/24 01:38:15;;;;;;;1.20;1.20;;;;;;;-14.20;80.80;98441.22;4895979;29;20567;-84
2021/12/24 01:43:23;;;;;;;1.40;1.30;;;;;;;-14.06;80.61;98440.25;4910458;29;20546;-83
2021/12/24 01:45:54;;;;;;;1.35;1.25;;;;;;;-13.90;80.12;98431.44;4914336;29;20396;-85
2021/12/24 01:48:21;;;;;;;1.30;1.20;;;;;;;-13.89;79.78;98430.53;4914644;29;20553;-84
2021/12/24 01:50:50;;;;;;;1.30;1.23;;;;;;;-13.86;79.92;98431.13;4898023;29;20631;-84
2021/12/24 01:53:23;;;;;;;1.40;1.30;;;;;;;-13.84;79.56;98441.41;4893531;29;20048;-83
2021/12/24 01:55:52;;;;;;;1.40;1.30;;;;;;;-13.77;79.58;98445.25;4895742;29;20056;-84
2021/12/24 01:58:23;;;;;;;1.30;1.20;;;;;;;-13.78;79.39;98449.59;4895737;29;20652;-84
2021/12/24 02:00:52;;;;;;;1.38;1.27;;;;;;;-13.84;79.55;98431.03;4882410;29;20064;-85
2021/12/24 02:03:20;;;;;;;1.60;1.50;;;;;;;-13.88;79.38;98437.34;4912068;29;20143;-83
2021/12/24 02:05:48;;;;;;;1.60;1.50;;;;;;;-13.93;79.64;98431.66;4895877;29;20063;-84
2021/12/24 02:08:16;;;;;;;1.50;1.40;;;;;;;-14.02;79.87;98412.38;4897583;29;20104;-84
2021/12/24 02:10:49;;;;;;;1.30;1.20;;;;;;;-13.92;79.73;98422.94;4914826;29;20149;-84
2021/12/24 02:13:38;;;;;;;1.50;1.40;;;;;;;-13.94;79.55;98430.84;4886977;29;20063;-85
2021/12/24 02:30:05;;;;;;;1.27;1.20;;;;;;;-13.73;78.98;98407.75;4862151;29;20119;-83
2021/12/24 02:32:32;;;;;;;1.60;1.50;;;;;;;-13.74;78.62;98400.09;4910508;29;20412;-84
2021/12/24 02:35:01;;;;;;;1.35;1.25;;;;;;;-13.74;78.83;98398.34;4909765;29;20083;-83
2021/12/24 02:37:29;;;;;;;1.25;1.17;;;;;;;-13.71;78.72;98400.72;4912601;29;20056;-84
2021/12/24 02:39:56;;;;;;;1.60;1.50;;;;;;;-13.67;78.82;98402.16;4913192;29;20508;-84
2021/12/24 02:42:24;;;;;;;1.48;1.38;;;;;;;-13.66;78.72;98396.03;4894002;29;20052;-85
2021/12/24 02:44:52;;;;;;;1.50;1.40;;;;;;;-13.64;78.40;98390.75;4914153;29;20056;-85
2021/12/24 02:55:10;;;;;;;1.30;1.20;;;;;;;-13.63;78.39;98377.63;4912595;29;20060;-84
2021/12/24 02:57:39;;;;;;;1.67;1.58;;;;;;;-13.60;78.24;98363.63;4907351;29;20460;-84
2021/12/24 03:00:15;;;;;;;1.70;1.60;;;;;;;-13.59;78.11;98363.53;4893688;29;20052;-84
2021/12/24 03:02:44;;;;;;;1.40;1.30;;;;;;;-13.58;77.81;98354.78;4915223;29;20591;-83
2021/12/24 03:05:17;;;;;;;1.40;1.30;;;;;;;-13.59;77.93;98362.69;4898757;29;20051;-84
2021/12/24 03:07:45;;;;;;;1.40;1.30;;;;;;;-13.62;77.97;98352.50;4898907;29;20143;-86
2021/12/24 03:10:17;;;;;;;1.50;1.40;;;;;;;-13.64;77.75;98359.59;4861112;29;20057;-86
2021/12/24 03:12:46;;;;;;;1.40;1.30;;;;;;;-13.66;78.08;98354.50;4858586;29;20053;-88
2021/12/24 03:15:15;;;;;;;1.52;1.42;;;;;;;-13.61;77.95;98354.19;4861231;29;20637;-87
2021/12/24 03:17:48;;;;;;;1.27;1.20;;;;;;;-13.64;77.93;98360.41;4853509;29;20049;-90
2021/12/24 03:20:16;;;;;;;1.30;1.20;;;;;;;-13.67;78.06;98350.25;4855543;29;20053;-92
2021/12/24 03:25:12;;;;;;;1.15;1.15;;;;;;;-13.66;77.79;98353.69;4866834;29;20103;-88
2021/12/24 03:27:39;;;;;;;1.55;1.45;;;;;;;-13.72;77.94;98344.56;4844413;29;20053;-86
2021/12/24 03:30:08;;;;;;;1.25;1.20;;;;;;;-13.79;78.11;98361.50;4880225;29;20061;-85
2021/12/24 03:32:35;;;;;;;1.27;1.17;;;;;;;-13.82;78.36;98351.31;4867548;29;20045;-89
2021/12/24 03:35:04;;;;;;;1.48;1.38;;;;;;;-13.86;78.38;98358.50;4531893;29;10000608;-89
2021/12/24 03:37:31;;;;;;;1.17;1.17;;;;;;;-13.89;78.45;98347.50;4888271;29;20057;-87
2021/12/24 03:40:00;;;;;;;1.05;1.05;;;;;;;-13.93;78.58;98352.06;4868775;29;20033;-94
2021/12/24 03:42:30;;;;;;;1.05;1.05;;;;;;;-13.94;78.92;98358.19;4893016;29;20080;-85
2021/12/24 03:45:07;;;;;;;1.30;1.20;;;;;;;-13.94;78.80;98347.00;4919828;29;20091;-85
2021/12/24 03:47:40;;;;;;;1.58;1.48;;;;;;;-14.01;78.84;98347.41;4900846;29;20548;-85
2021/12/24 03:50:11;;;;;;;1.10;1.10;;;;;;;-14.21;79.33;98335.81;4899120;29;20056;-86
2021/12/24 03:55:27;;;;;;;1.40;1.30;;;;;;;-14.32;79.49;98329.72;4899306;29;20401;-85
2021/12/24 03:57:55;;;;;;;1.10;1.10;;;;;;;-14.41;79.92;98334.59;4885757;29;20052;-81
2021/12/24 04:00:41;;;;;;;1.52;1.42;;;;;;;-14.41;80.28;98326.81;4920122;29;20079;-86
2021/12/24 04:03:23;;;;;;;1.30;1.20;;;;;;;-14.34;80.25;98319.47;4924882;29;20048;-83
2021/12/24 04:06:25;;;;;;;1.50;1.40;;;;;;;-14.22;80.38;98325.56;4917117;29;20052;-83
2021/12/24 04:09:15;;;;;;;1.10;1.10;;;;;;;-14.15;79.88;98319.03;4840215;29;20102;-85
2021/12/24 04:11:48;;;;;;;1.40;1.30;;;;;;;-14.11;79.95;98324.81;4810090;29;20064;-83
2021/12/24 04:14:16;;;;;;;1.60;1.50;;;;;;;-14.06;79.82;98309.78;4810572;29;20073;-84
2021/12/24 04:16:43;;;;;;;1.48;1.38;;;;;;;-14.03;79.65;98315.56;4840158;29;20473;-86
2021/12/24 04:27:24;;;;;;;1.50;1.40;;;;;;;-13.93;79.29;98305.38;4824151;29;20054;-84
2021/12/24 04:30:01;;;;;;;1.50;1.40;;;;;;;-13.88;79.38;98300.69;4825160;29;20078;-85
2021/12/24 04:35:37;;;;;;;1.27;1.20;;;;;;;-13.82;79.10;98296.84;4824322;29;20144;-84
2021/12/24 04:52:08;;;;;;;1.38;1.27;;;;;;;-13.54;78.93;98274.94;4899335;29;20052;-83
2021/12/24 05:03:43;;;;;;;1.15;1.10;;;;;;;-13.39;78.76;98275.56;4871000;29;20048;-85
2021/12/24 05:05:47;;;;;;;1.30;1.20;;;;;;;-13.33;78.61;98270.78;4894321;29;20455;-84
2021/12/24 05:08:27;;;;;;;1.42;1.33;;;;;;;-13.29;78.85;98266.22;4899601;29;20181;-85
2021/12/24 05:10:56;;;;;;;1.55;1.45;;;;;;;-13.25;78.64;98257.19;4915784;29;20044;-84
2021/12/24 05:13:24;;;;;;;1.55;1.45;;;;;;;-13.20;78.63;98255.09;4883793;29;20098;-84
2021/12/24 05:21:54;;;;;;;1.70;1.60;;;;;;;-13.10;78.62;98266.44;4876877;29;20428;-84
2021/12/24 05:24:26;;;;;;;1.40;1.30;;;;;;;-13.05;78.35;98260.09;4860807;29;20084;-84
2021/12/24 05:27:00;;;;;;;1.42;1.33;;;;;;;-13.03;78.45;98250.44;4876229;29;20428;-84
2021/12/24 05:29:32;;;;;;;1.48;1.38;;;;;;;-13.00;78.36;98248.41;4861210;29;20060;-85
2021/12/24 05:31:59;;;;;;;1.50;1.40;;;;;;;-12.98;78.37;98232.72;4860900;29;20080;-83
2021/12/24 05:34:27;;;;;;;1.40;1.30;;;;;;;-12.91;78.42;98247.75;4876273;29;20086;-85
2021/12/24 05:36:56;;;;;;;1.33;1.23;;;;;;;-12.82;78.27;98250.56;4860575;29;20059;-84
2021/12/24 05:39:23;;;;;;;1.58;1.48;;;;;;;-12.78;78.35;98252.00;4867404;29;20069;-84
2021/12/24 05:41:52;;;;;;;1.50;1.40;;;;;;;-12.70;77.87;98244.47;4878910;29;20053;-84
2021/12/24 05:44:22;;;;;;;1.40;1.30;;;;;;;-12.69;77.70;98249.50;4856669;29;20053;-84
2021/12/24 05:47:00;;;;;;;1.55;1.45;;;;;;;-12.64;77.41;98256.97;4850065;29;20065;-85
2021/12/24 05:49:35;;;;;;;1.60;1.50;;;;;;;-12.58;77.26;98261.72;4846787;29;20122;-83
2021/12/24 05:52:25;;;;;;;1.52;1.42;;;;;;;-12.59;77.07;98280.03;4852335;29;20156;-82
2021/12/24 05:54:58;;;;;;;1.30;1.20;;;;;;;-12.56;76.98;98266.78;4864365;29;20052;-83
2021/12/24 05:57:28;;;;;;;1.48;1.38;;;;;;;-12.57;76.94;98267.75;4847223;29;20064;-84
2021/12/24 05:59:56;;;;;;;1.50;1.40;;;;;;;-12.54;77.05;98267.50;4885152;29;20508;-84
2021/12/24 06:02:24;;;;;;;1.40;1.30;;;;;;;-12.52;76.93;98260.41;4893273;29;20108;-84
2021/12/24 06:04:51;;;;;;;1.10;1.10;;;;;;;-12.48;76.68;98262.66;4903059;29;20048;-83
2021/12/24 06:07:22;;;;;;;1.30;1.20;;;;;;;-12.45;76.24;98267.63;4904822;29;20053;-85
2021/12/24 06:09:49;;;;;;;1.45;1.35;;;;;;;-12.49;76.18;98261.00;4897397;29;20097;-81
2021/12/24 06:12:18;;;;;;;1.10;1.10;;;;;;;-12.45;76.21;98261.59;4904638;29;20052;-82
2021/12/24 06:14:52;;;;;;;1.35;1.25;;;;;;;-12.42;76.05;98270.94;4901042;29;20511;-84
2021/12/24 06:17:22;;;;;;;1.60;1.50;;;;;;;-12.42;76.05;98276.97;4904655;29;20140;-84
2021/12/24 06:19:50;;;;;;;1.40;1.30;;;;;;;-12.38;75.53;98260.19;4906216;29;20523;-83
2021/12/24 06:22:18;;;;;;;1.27;1.20;;;;;;;-12.31;75.16;98265.72;4905666;29;20099;-85
2021/12/24 06:24:45;;;;;;;1.10;1.10;;;;;;;-12.38;75.15;98272.34;4910846;29;20068;-83
2021/12/24 06:27:12;;;;;;;1.38;1.27;;;;;;;-12.31;75.27;98273.53;4915572;29;20484;-82
2021/12/24 06:29:39;;;;;;;1.42;1.33;;;;;;;-12.27;74.91;98288.78;4920461;29;20052;-83
2021/12/24 06:32:07;;;;;;;1.40;1.30;;;;;;;-12.28;74.64;98275.88;4912690;29;20048;-82
2021/12/24 06:34:35;;;;;;;1.30;1.20;;;;;;;-12.32;74.69;98266.69;4908555;29;20048;-82
2021/12/24 06:37:03;;;;;;;1.50;1.40;;;;;;;-12.30;75.00;98281.22;4900237;29;20079;-82
2021/12/24 06:39:30;;;;;;;1.52;1.42;;;;;;;-12.27;75.33;98296.59;4904030;29;20052;-82
2021/12/24 06:41:58;;;;;;;1.40;1.30;;;;;;;-12.31;75.56;98278.72;4910813;29;20104;-84
2021/12/24 06:44:25;;;;;;;1.48;1.38;;;;;;;-12.27;76.02;98280.16;4901470;29;20079;-84
2021/12/24 06:46:52;;;;;;;1.35;1.25;;;;;;;-12.18;75.79;98286.41;4896634;29;20167;-85
2021/12/24 06:49:22;;;;;;;1.50;1.40;;;;;;;-12.28;75.83;98270.69;4914264;29;20063;-85
2021/12/24 06:51:55;;;;;;;1.50;1.40;;;;;;;-12.31;75.84;98273.53;4916333;29;20056;-85
2021/12/24 06:54:26;;;;;;;1.40;1.30;;;;;;;-12.29;75.37;98259.47;4913198;29;20131;-85
2021/12/24 06:56:54;;;;;;;1.60;1.50;;;;;;;-12.23;75.58;98287.63;4899281;29;20055;-83
2021/12/24 06:59:21;;;;;;;1.50;1.40;;;;;;;-12.18;75.25;98283.81;4893339;29;20059;-83
2021/12/24 07:01:50;;;;;;;1.30;1.20;;;;;;;-12.14;75.14;98274.84;4898970;29;20081;-82
2021/12/24 07:04:20;;;;;;;1.33;1.23;;;;;;;-12.13;75.20;98285.09;4916676;29;20159;-85
2021/12/24 07:06:50;;;;;;;1.40;1.30;;;;;;;-12.12;74.89;98293.75;4899186;29;20511;-86
2021/12/24 07:09:22;;;;;;;1.33;1.23;;;;;;;-12.13;75.30;98276.47;4900291;29;20419;-84
2021/12/24 07:11:50;;;;;;;1.50;1.40;;;;;;;-12.13;75.52;98281.69;4900440;29;20757;-86
2021/12/24 07:14:17;;;;;;;1.48;1.38;;;;;;;-12.06;75.30;98285.47;4914811;29;20058;-86
2021/12/24 07:16:46;;;;;;;1.40;1.30;;;;;;;-12.06;75.11;98272.47;4875406;29;20085;-88
2021/12/24 07:19:13;;;;;;;1.38;1.27;;;;;;;-12.03;75.28;98282.63;4917611;29;20184;-84
2021/12/24 07:21:41;;;;;;;1.67;1.58;;;;;;;-12.04;75.11;98287.00;4902583;29;20140;-88
2021/12/24 07:24:09;;;;;;;1.52;1.42;;;;;;;-12.08;75.34;98282.16;4895809;29;20056;-85
2021/12/24 07:26:37;;;;;;;1.38;1.27;;;;;;;-12.03;75.24;98293.03;4898001;29;20052;-84
2021/12/24 07:29:04;;;;;;;1.40;1.30;;;;;;;-12.04;74.73;98270.56;4879688;29;20052;-85
2021/12/24 07:31:32;;;;;;;1.50;1.40;;;;;;;-12.03;74.89;98275.63;4901278;29;20092;-91
2021/12/24 07:34:02;;;;;;;1.45;1.35;;;;;;;-11.98;74.88;98269.25;4909219;29;20568;-91
2021/12/24 07:36:30;;;;;;;1.40;1.30;;;;;;;-12.10;74.95;98256.28;4922585;29;20126;-88
2021/12/24 07:38:57;;;;;;;1.15;1.15;;;;;;;-11.97;75.06;98269.16;4900015;29;20067;-88
2021/12/24 07:41:25;;;;;;;1.48;1.38;;;;;;;-11.93;74.81;98275.75;4908119;29;20044;-87
2021/12/24 07:43:55;;;;;;;1.50;1.40;;;;;;;-11.89;74.65;98274.56;4894288;29;20060;-86
2021/12/24 07:46:25;;;;;;;1.40;1.30;;;;;;;-11.88;74.26;98278.81;4914474;29;20468;-86
2021/12/24 07:49:12;;;;;;;1.35;1.25;;;;;;;-11.89;74.35;98268.53;4908212;29;20402;-86
2021/12/24 07:52:01;;;;;;;1.58;1.48;;;;;;;-11.87;74.06;98257.06;4911126;29;20070;-86
2021/12/24 07:54:30;;;;;;;1.35;1.25;;;;;;;-11.84;73.95;98272.41;4903583;29;20056;-85
2021/12/24 07:56:59;;;;;;;1.60;1.50;;;;;;;-11.83;73.96;98274.03;4893589;29;20477;-89
2021/12/24 07:59:38;;;;;;;1.50;1.40;;;;;;;-11.82;74.01;98280.91;4921685;29;20621;-88
2021/12/24 08:02:09;;;;;;;1.40;1.30;;;;;;;-11.75;73.96;98270.00;4892756;29;20060;-87
2021/12/24 08:04:42;;;;;;;1.50;1.40;;;;;;;-11.69;73.71;98272.13;4915359;29;20091;-88
2021/12/24 08:07:10;;;;;;;1.45;1.35;;;;;;;-11.67;73.55;98275.41;4904540;29;20060;-87
2021/12/24 08:09:38;;;;;;;1.40;1.30;;;;;;;-11.70;73.54;98279.09;4903732;29;20099;-86
2021/12/24 08:12:11;;;;;;;1.50;1.40;;;;;;;-11.72;73.57;98268.00;4895821;29;20064;-88
2021/12/24 08:14:39;;;;;;;1.38;1.27;;;;;;;-11.71;73.56;98276.63;4564626;29;9999907;-89
2021/12/24 08:17:06;;;;;;;1.40;1.30;;;;;;;-11.63;73.43;98276.84;4906722;29;20072;-88
2021/12/24 08:19:36;;;;;;;1.50;1.40;;;;;;;-11.62;73.64;98261.09;4902961;29;20057;-88
2021/12/24 08:22:06;;;;;;;1.45;1.35;;;;;;;-11.58;73.49;98269.50;4910562;29;20067;-88
2021/12/24 08:24:34;;;;;;;1.60;1.50;;;;;;;-11.57;73.75;98278.94;4900001;29;20135;-86
2021/12/24 08:27:03;;;;;;;1.38;1.27;;;;;;;-11.54;73.26;98244.88;4878757;29;20053;-86
2021/12/24 08:29:30;;;;;;;1.40;1.30;;;;;;;-11.49;73.52;98240.13;4898431;29;20052;-87
2021/12/24 08:31:57;;;;;;;1.42;1.33;;;;;;;-11.44;73.67;98232.75;4901381;29;20151;-87
2021/12/24 08:34:25;;;;;;;1.48;1.38;;;;;;;-11.39;73.51;98229.78;4901818;29;20064;-89
2021/12/24 08:36:53;;;;;;;1.50;1.40;;;;;;;-11.42;73.55;98233.47;4903536;29;20111;-89
2021/12/24 08:39:22;;;;;;;1.50;1.40;;;;;;;-11.42;73.30;98228.25;4910619;29;20079;-85
2021/12/24 08:41:54;;;;;;;1.50;1.40;;;;;;;-11.33;73.68;98231.88;4920240;29;20051;-86
2021/12/24 08:44:31;;;;;;;1.35;1.25;;;;;;;-11.35;72.95;98224.16;4900486;29;20094;-86
2021/12/24 08:47:03;;;;;;;1.65;1.55;;;;;;;-11.32;73.59;98230.91;4878215;29;20437;-86
2021/12/24 08:49:33;;;;;;;1.50;1.40;;;;;;;-11.25;73.56;98218.22;4896977;29;20151;-84
2021/12/24 08:52:00;;;;;;;1.50;1.40;;;;;;;-11.17;73.36;98236.63;4907195;29;20053;-86
2021/12/24 08:54:27;;;;;;;1.50;1.40;;;;;;;-11.19;73.06;98212.50;4882229;29;20056;-87
2021/12/24 08:56:55;;;;;;;1.50;1.40;;;;;;;-11.19;73.11;98210.72;4908869;29;20114;-84
2021/12/24 08:59:23;;;;;;;1.40;1.30;;;;;;;-11.18;73.09;98227.19;4895694;29;20531;-83
2021/12/24 09:01:51;;;;;;;1.33;1.23;;;;;;;-11.13;72.65;98231.06;4878121;29;20365;-84
2021/12/24 09:04:20;;;;;;;1.40;1.30;;;;;;;-11.17;72.68;98206.19;4907407;29;20518;-87
2021/12/24 09:06:48;;;;;;;1.50;1.40;;;;;;;-11.30;73.14;98212.56;4901564;29;20119;-85
2021/12/24 09:09:16;;;;;;;1.50;1.40;;;;;;;-11.30;73.39;98213.38;4919458;29;20083;-86
2021/12/24 09:11:44;;;;;;;1.38;1.27;;;;;;;-11.26;73.54;98212.19;4909786;29;20525;-86
2021/12/24 09:14:20;;;;;;;1.52;1.42;;;;;;;-11.25;73.18;98199.97;4905808;29;20053;-86
2021/12/24 09:16:48;;;;;;;1.48;1.38;;;;;;;-11.20;73.52;98195.22;4921607;29;20094;-87
2021/12/24 09:19:21;;;;;;;1.40;1.30;;;;;;;-11.20;73.27;98188.22;4886333;29;20112;-85
2021/12/24 09:21:56;;;;;;;1.50;1.40;;;;;;;-11.16;73.48;98220.91;4913156;29;20926;-86
2021/12/24 09:24:30;;;;;;;1.50;1.40;;;;;;;-11.07;73.76;98193.22;4890659;29;20048;-87
2021/12/24 09:26:58;;;;;;;1.50;1.40;;;;;;;-11.03;73.24;98192.03;4904768;29;20052;-83
2021/12/24 09:29:27;;;;;;;1.52;1.42;;;;;;;-11.04;72.73;98172.13;4989146;23;20511;-83
2021/12/24 09:32:00;;;;;;;1.58;1.48;;;;;;;-11.05;72.80;98175.69;4916308;29;20059;-85
2021/12/24 09:34:43;;;;;;;1.50;1.40;;;;;;;-11.07;73.07;98177.59;4842373;29;20061;-85
2021/12/24 09:37:10;;;;;;;1.55;1.45;;;;;;;-11.12;73.05;98169.34;4887981;29;20056;-88
2021/12/24 09:39:44;;;;;;;1.40;1.30;;;;;;;-11.13;73.40;98167.69;4886946;29;20061;-86
2021/12/24 09:42:11;;;;;;;1.50;1.40;;;;;;;-10.99;73.76;98175.16;4880790;29;20049;-86
2021/12/24 09:44:38;;;;;;;1.40;1.30;;;;;;;-10.94;73.09;98154.78;4881977;29;20052;-87
2021/12/24 09:47:07;;;;;;;1.38;1.27;;;;;;;-10.96;73.10;98167.13;4850519;29;20053;-88
2021/12/24 09:49:35;;;;;;;1.50;1.40;;;;;;;-11.03;72.87;98167.75;4873296;29;20636;-86
2021/12/24 09:52:04;;;;;;;1.50;1.40;;;;;;;-11.11;73.30;98165.81;4868270;29;20156;-86
2021/12/24 09:54:31;;;;;;;1.45;1.35;;;;;;;-11.09;73.34;98161.25;4874480;29;20083;-87
2021/12/24 09:57:01;;;;;;;1.48;1.38;;;;;;;-11.17;73.61;98161.91;4874391;29;20469;-83
2021/12/24 09:59:28;;;;;;;1.50;1.40;;;;;;;-11.16;73.77;98170.56;4887201;29;20060;-84
2021/12/24 10:02:00;;;;;;;1.40;1.30;;;;;;;-11.13;73.71;98149.47;4900298;29;20747;-83
2021/12/24 10:04:32;;;;;;;1.58;1.48;;;;;;;-11.07;73.79;98148.94;4891882;29;20041;-84
2021/12/24 10:07:06;;;;;;;1.50;1.40;;;;;;;-11.00;73.94;98149.25;4876833;29;20056;-84
2021/12/24 10:09:45;;;;;;;1.37;1.27;;;;;;;-11.01;73.52;98138.00;4905961;29;20131;-83
2021/12/24 10:12:17;;;;;;;1.50;1.40;;;;;;;-11.07;73.63;98145.50;4893510;29;20048;-85
2021/12/24 10:14:50;;;;;;;1.40;1.30;;;;;;;-11.08;73.95;98149.09;4911032;29;20059;-86
2021/12/24 10:17:20;;;;;;;1.30;1.20;;;;;;;-11.00;74.04;98144.88;4913318;29;20412;-84
2021/12/24 10:19:53;;;;;;;1.50;1.40;;;;;;;-10.95;73.68;98147.09;4913155;29;20085;-84
2021/12/24 10:22:54;;;;;;;1.40;1.30;;;;;;;-10.98;73.13;98139.53;4907764;29;20107;-86
2021/12/24 10:25:28;;;;;;;1.50;1.40;;;;;;;-10.97;73.62;98147.19;4906593;29;20048;-84
2021/12/24 10:27:55;;;;;;;1.20;1.17;;;;;;;-10.96;73.49;98141.06;4890975;29;20060;-84
2021/12/24 10:30:32;;;;;;;1.33;1.23;;;;;;;-10.93;73.59;98134.75;4881390;29;20068;-86
2021/12/24 10:33:10;;;;;;;1.40;1.30;;;;;;;-10.92;73.32;98141.59;4912356;29;20111;-87
2021/12/24 10:35:43;;;;;;;1.35;1.25;;;;;;;-10.93;73.29;98132.97;4902189;29;20127;-88
2021/12/24 10:38:16;;;;;;;1.40;1.30;;;;;;;-10.92;73.51;98128.56;4906649;29;20063;-90
2021/12/24 10:41:10;;;;;;;1.50;1.40;;;;;;;-10.92;73.22;98129.41;4889820;29;20103;-90
2021/12/24 10:43:40;;;;;;;1.50;1.40;;;;;;;-10.98;73.27;98135.13;4923307;29;20087;-89
2021/12/24 10:46:14;;;;;;;1.50;1.40;;;;;;;-10.97;72.95;98131.56;4923062;29;20073;-89
2021/12/24 10:49:17;;;;;;;1.50;1.40;;;;;;;-10.99;73.13;98135.25;4909309;29;20107;-89
2021/12/24 10:52:12;;;;;;;1.10;1.10;;;;;;;-11.06;73.10;98132.38;4928547;29;20055;-90
2021/12/24 10:54:59;;;;;;;1.38;1.27;;;;;;;-11.07;72.99;98145.50;4910565;29;20060;-89
2021/12/24 10:57:32;;;;;;;1.20;1.20;;;;;;;-11.13;73.21;98139.03;4919345;29;20124;-90
2021/12/24 11:00:22;;;;;;;1.40;1.30;;;;;;;-11.21;73.42;98126.66;4922432;29;20049;-89
2021/12/24 11:02:56;;;;;;;1.50;1.40;;;;;;;-11.15;73.56;98127.91;4905555;29;20311;-89
2021/12/24 11:05:35;;;;;;;1.60;1.50;;;;;;;-11.12;73.57;98117.22;4904042;29;20052;-88
2021/12/24 11:08:05;;;;;;;1.35;1.25;;;;;;;-11.14;74.02;98138.22;4905596;29;20056;-88
2021/12/24 11:10:37;;;;;;;1.30;1.20;;;;;;;-11.13;73.58;98107.78;4892991;29;20555;-87
2021/12/24 11:13:14;;;;;;;1.35;1.25;;;;;;;-11.09;73.49;98114.34;4917066;29;20044;-86
2021/12/24 11:15:52;;;;;;;1.50;1.40;;;;;;;-11.17;73.50;98101.97;4902482;29;20060;-86
2021/12/24 11:18:25;;;;;;;1.40;1.30;;;;;;;-11.13;73.54;98103.38;4909195;29;20158;-87
2021/12/24 11:20:56;;;;;;;1.50;1.40;;;;;;;-11.11;73.62;98105.88;4920416;29;20062;-87
2021/12/24 11:23:25;;;;;;;1.50;1.40;;;;;;;-11.12;73.63;98097.19;4871653;29;20057;-86
2021/12/24 11:26:09;;;;;;;1.40;1.30;;;;;;;-11.21;73.52;98097.19;4887322;29;20053;-87
2021/12/24 11:28:37;;;;;;;1.30;1.20;;;;;;;-11.20;73.86;98104.03;4914626;29;20077;-88
2021/12/24 11:31:27;;;;;;;1.48;1.38;;;;;;;-11.26;74.00;98091.53;4922245;29;20091;-87
2021/12/24 11:33:55;;;;;;;1.50;1.40;;;;;;;-11.22;74.05;98096.34;4915245;29;20048;-89
2021/12/24 11:36:39;;;;;;;1.42;1.33;;;;;;;-11.21;74.14;98105.00;4884286;29;20055;-86
2021/12/24 11:39:07;;;;;;;1.40;1.30;;;;;;;-11.21;74.21;98091.97;4923643;29;20052;-89
2021/12/24 11:41:38;;;;;;;1.40;1.30;;;;;;;-11.24;74.23;98097.41;4917089;29;20056;-90
2021/12/24 11:44:10;;;;;;;1.30;1.20;;;;;;;-11.25;74.42;98094.00;4912359;29;20059;-87
2021/12/24 11:46:39;;;;;;;1.40;1.30;;;;;;;-11.23;74.45;98099.09;4892988;29;20056;-90
2021/12/24 11:49:06;;;;;;;1.40;1.30;;;;;;;-11.18;74.58;98096.91;4910621;29;20058;-90
2021/12/24 11:51:40;;;;;;;1.20;1.10;;;;;;;-11.19;74.57;98090.88;4910178;29;20123;-89
2021/12/24 11:54:09;;;;;;;1.50;1.40;;;;;;;-11.18;74.57;98097.75;4857701;29;20055;-87
2021/12/24 11:56:40;;;;;;;1.40;1.30;;;;;;;-11.25;74.48;98090.56;4900218;29;20106;-88
2021/12/24 11:59:08;;;;;;;1.27;1.20;;;;;;;-11.27;74.67;98087.25;4921041;29;20056;-86
2021/12/24 12:01:41;;;;;;;1.30;1.20;;;;;;;-11.26;74.67;98091.53;4883604;29;20143;-86
2021/12/24 12:04:19;;;;;;;1.52;1.42;;;;;;;-11.26;74.76;98100.16;4887625;29;20059;-87
2021/12/24 12:06:46;;;;;;;1.33;1.23;;;;;;;-11.27;74.58;98093.28;4901494;29;20112;-88
2021/12/24 12:09:14;;;;;;;1.40;1.30;;;;;;;-11.27;74.57;98092.47;4895718;29;20056;-87
2021/12/24 12:11:44;;;;;;;1.20;1.20;;;;;;;-11.23;74.85;98104.28;4907380;29;20063;-88
2021/12/24 12:14:13;;;;;;;1.27;1.20;;;;;;;-11.24;74.82;98092.22;4904358;29;20049;-87
2021/12/24 12:16:49;;;;;;;1.25;1.20;;;;;;;-11.25;74.83;98090.56;4903144;29;20048;-87
2021/12/24 12:19:28;;;;;;;1.17;1.17;;;;;;;-11.21;74.78;98081.56;4892640;29;20485;-87
2021/12/24 12:22:15;;;;;;;1.30;1.20;;;;;;;-11.23;74.73;98081.66;4921287;29;20048;-88
2021/12/24 12:25:00;;;;;;;1.40;1.30;;;;;;;-11.20;74.63;98088.41;4912428;29;20142;-89
2021/12/24 12:27:36;;;;;;;1.45;1.35;;;;;;;-11.25;74.54;98096.59;4905830;29;20056;-88
2021/12/24 12:30:37;;;;;;;1.30;1.20;;;;;;;-11.27;74.57;98087.25;4905780;29;20060;-88
2021/12/24 12:33:11;;;;;;;1.30;1.20;;;;;;;-11.33;74.74;98090.41;4906354;29;20124;-86
2021/12/24 12:35:57;;;;;;;1.00;1.00;;;;;;;-11.32;74.80;98086.81;4887064;29;20052;-86
2021/12/24 12:38:35;;;;;;;1.33;1.23;;;;;;;-11.35;74.78;98085.31;4907778;29;20064;-85
2021/12/24 12:41:35;;;;;;;1.50;1.40;;;;;;;-11.37;74.80;98095.03;4901485;29;20150;-85
2021/12/24 12:44:08;;;;;;;1.27;1.20;;;;;;;-11.48;75.04;98093.31;4885587;29;20060;-85
2021/12/24 12:46:41;;;;;;;1.25;1.20;;;;;;;-11.49;75.16;98080.41;4888967;29;20052;-88
2021/12/24 12:49:16;;;;;;;1.33;1.23;;;;;;;-11.54;75.38;98078.22;4845041;29;20064;-87
2021/12/24 12:51:52;;;;;;;1.40;1.30;;;;;;;-11.48;75.32;98075.09;4896876;29;20485;-90
2021/12/24 12:54:38;;;;;;;1.23;1.20;;;;;;;-11.47;75.61;98063.72;4891309;29;20044;-86
2021/12/24 12:57:12;;;;;;;1.40;1.30;;;;;;;-11.52;75.55;98078.91;4883531;29;20063;-86
2021/12/24 12:59:44;;;;;;;1.10;1.10;;;;;;;-11.50;75.85;98077.00;4912791;29;20436;-87
2021/12/24 13:02:11;;;;;;;1.40;1.30;;;;;;;-11.45;75.81;98085.25;4902050;29;20060;-91
2021/12/24 13:04:41;;;;;;;1.10;1.10;;;;;;;-11.45;75.64;98059.19;4900493;29;20044;-87
2021/12/24 13:07:09;;;;;;;1.30;1.20;;;;;;;-11.45;75.84;98080.03;4898288;29;20520;-87
2021/12/24 13:09:44;;;;;;;1.40;1.30;;;;;;;-11.48;75.72;98069.88;4910737;29;20101;-85
2021/12/24 13:12:15;;;;;;;1.27;1.20;;;;;;;-11.49;75.82;98065.63;4897613;29;20139;-85
2021/12/24 13:14:45;;;;;;;1.20;1.20;;;;;;;-11.50;75.85;98063.16;4908760;29;20567;-87
2021/12/24 13:24:59;;;;;;;1.38;1.27;;;;;;;-11.45;76.08;98055.78;4902118;29;20572;-89
2021/12/24 13:27:37;;;;;;;1.27;1.20;;;;;;;-11.46;76.10;98059.34;4902837;29;20108;-89
2021/12/24 13:30:19;;;;;;;1.30;1.20;;;;;;;-11.52;75.95;98039.00;4924768;29;20064;-92
2021/12/24 13:33:00;;;;;;;1.48;1.38;;;;;;;-11.48;75.96;98059.47;4895794;29;20074;-88
2021/12/24 13:35:31;;;;;;;1.50;1.40;;;;;;;-11.48;76.03;98046.44;4921761;29;20146;-88
2021/12/24 13:38:01;;;;;;;1.40;1.30;;;;;;;-11.50;76.08;98056.16;4922124;29;20052;-88